Kingston, Indiana
Current Conditions -  °F | °C
As of 3:45 PM on Thursday 23 Oct 2014 (Local Time) from KBAK Reporting Station
Clear Clear  
Wind Chill: 57°   Ceiling: Unl
Heat Index: 57°   Visibility: 10mi
Dew Point: 37°   Wind: 0mph
Humidity: 48%   Direction: NA
Pressure: 30.16"   Gusts: NA
Location:  39.3206°N, 85.4768°W
Report Text: KBAK 231945Z 00000KT 10SM SKC 14/03 A3016
Loading
Personal Weather Stations






























Interactive Weather Map
Tropical Storm Tracking
New forecast layout! Learn more

10-Day Weather Forecast

Advertisements
Track Severe Weather on mobile